Atlantic - Newfoundland: Past 24 Hour Conditions

 

St. Anthony Airport

01:30 PM NDT 24 October 2014
This table is a summary of hourly weather conditions for the past 24 hours.
Date / Time
(NDT)
Wind(knots) Conditions Visibility(km) Pressure(kPa) Air tempC) Relative humidity(%) Dew pointC) Wind Chill
24 October 2014
13:30 NNE 16 Sunny 16 101.7 8 68 3 *
12:30 NE 14 gust 21 Sunny 16 101.8 8 72 3 *
11:30 NE 15 gust 21 Sunny 16 101.8 7 76 3 *
10:30 NNE 12 gust 17 Sunny 16 101.9 5 89 3 *
9:30 NNE 8 Sunny 16 101.9 1 100 1 *
8:30 NW 4 Fog 0.2 101.9 -2 100 -2 -5
7:30 S 3 Mist 2 101.9 0 100 0 *
6:30 E 3 Fog 0.4 101.8 -2 100 -2 -4
5:30 NNE 3 Mist 1 101.9 -2 99 -2 -3
4:30 SW 4 Clear 16 101.9 1 96 1 *
3:30 SSE 4 Clear 16 101.9 -1 96 -1 -3
2:30 S 6 Clear 16 101.9 1 98 1 *
1:30 W 7 Clear 16 102.0 3 93 2 *
0:30 SSW 5 Clear 16 102.0 3 93 2 *
23 October 2014
23:30 SSW 5 Clear 16 102.1 0 97 0 *
22:30 S 4 Clear 16 102.1 1 94 0 *
21:30 SW 9 Clear 16 102.2 3 89 1 *
20:30 S 4 Clear 16 102.1 3 88 1 *
19:30 SW 9 Clear 16 102.2 5 80 1 *
18:30 SW 10 Clear 16 102.2 6 73 1 *
17:30 SW 14 gust 19 Sunny 16 102.2 7 65 1 *
16:30 WSW 15 gust 24 Sunny 16 102.2 9 59 1 *
15:30 WSW 16 gust 24 Sunny 16 102.3 10 52 0 *
14:30 WSW 18 Sunny 16 102.3 10 53 1 *
13:30 SW 17 gust 25 Sunny 16 102.4 10 55 1 *
 
Map of Atlantic - Newfoundland marine weather areas Southwestern Grand Banks - 44138 Banquereau - 44139 Tail of the Bank - 44140 Nickerson Bank - 44251 Northeast Burgeo Bank - 44255 Blanc-Sablon Airport Cap Whittle Chevery Natashquan Airport Heath Point Miscou Island Grand Étang Ingonish Beach North Mountain St.Paul Island J.A. Douglas McCurdy Sydney Airport Charlottetown Airport East Point North Cape Argentia Bonavista Burgeo Cape Race Corner Brook Daniel's Harbour Englee Ferolle Point La Scie Port aux Basques Rocky Harbour Sagona Island St. Anthony Airport St. John's Int'l Airport St. Lawrence Stephenville Airport Twillingate Winterland Wreckhouse Cartwright Airport Mary's Harbour Grates Cove Pool's Island Marticot Island Long Pond Îles de la Madeleine Airport
Legend: buoyBuoy land stationLand Station